createdAt,value
2022-11-11T00:00:32.618Z,0.86
2022-11-11T00:01:36.201Z,1.00
2022-11-11T00:02:39.616Z,0.57
2022-11-11T00:03:42.835Z,0.14
2022-11-11T00:04:45.665Z,1.71
2022-11-11T00:05:49.133Z,1.57
2022-11-11T00:06:52.567Z,1.00
2022-11-11T00:07:55.812Z,1.00
2022-11-11T00:08:59.409Z,1.00
2022-11-11T00:10:02.785Z,1.00
2022-11-11T00:11:06.004Z,1.00
2022-11-11T00:12:09.452Z,1.57
2022-11-11T00:13:12.490Z,1.57
2022-11-11T00:14:15.824Z,1.43
2022-11-11T00:15:18.901Z,2.43
2022-11-11T00:16:22.610Z,1.14
2022-11-11T00:17:25.863Z,1.37
2022-11-11T00:18:29.094Z,1.43
2022-11-11T00:19:32.298Z,1.71
2022-11-11T00:20:36.737Z,1.43
2022-11-11T00:21:39.853Z,2.50
2022-11-11T00:22:42.930Z,1.57
2022-11-11T00:23:46.201Z,1.00
2022-11-11T00:24:49.782Z,0.71
2022-11-11T00:25:58.900Z,0.00
2022-11-11T00:28:13.918Z,1.00
2022-11-11T00:29:17.369Z,1.43
2022-11-11T00:30:20.993Z,1.71
2022-11-11T00:31:24.850Z,0.00
2022-11-11T00:32:28.067Z,0.00
2022-11-11T00:33:31.072Z,0.43
2022-11-11T00:34:34.129Z,1.00
2022-11-11T00:35:37.316Z,0.50
2022-11-11T00:36:44.520Z,0.43
2022-11-11T00:37:44.608Z,0.50
2022-11-11T00:38:47.630Z,0.67
2022-11-11T00:39:50.880Z,1.50
2022-11-11T00:40:54.171Z,0.86
2022-11-11T00:41:57.253Z,0.17
2022-11-11T00:43:00.653Z,0.83
2022-11-11T00:44:03.915Z,1.57
2022-11-11T00:45:07.020Z,1.43
2022-11-11T00:46:10.148Z,1.86
2022-11-11T00:47:13.322Z,0.00
2022-11-11T00:48:16.673Z,0.57
2022-11-11T00:49:19.592Z,0.86
2022-11-11T00:50:22.569Z,1.50
2022-11-11T00:51:25.961Z,0.83
2022-11-11T00:52:29.225Z,0.71
2022-11-11T00:53:32.468Z,1.00
2022-11-11T00:54:35.487Z,1.33
2022-11-11T00:55:39.016Z,0.17
2022-11-11T00:56:42.032Z,0.57
2022-11-11T00:57:45.534Z,0.00
2022-11-11T00:58:48.631Z,1.14
2022-11-11T00:59:51.861Z,2.00
2022-11-11T01:00:54.844Z,1.43
2022-11-11T01:01:57.967Z,1.67
2022-11-11T01:03:01.247Z,1.33
2022-11-11T01:04:04.334Z,1.00
2022-11-11T01:05:07.412Z,1.00
2022-11-11T01:06:10.450Z,0.67
2022-11-11T01:07:13.752Z,1.33
2022-11-11T01:08:16.785Z,2.43
2022-11-11T01:09:19.920Z,2.17
2022-11-11T01:10:23.019Z,2.57
2022-11-11T01:11:26.306Z,1.14
2022-11-11T01:12:29.323Z,0.57
2022-11-11T01:13:32.398Z,1.57
2022-11-11T01:14:35.342Z,0.57
2022-11-11T01:15:38.308Z,1.00
2022-11-11T01:16:41.431Z,1.33
2022-11-11T01:17:44.514Z,1.67
2022-11-11T01:18:47.686Z,1.00
2022-11-11T01:19:50.727Z,1.43
2022-11-11T01:20:53.818Z,1.43
2022-11-11T01:21:57.395Z,2.00
2022-11-11T01:23:00.486Z,2.00
2022-11-11T01:24:03.596Z,0.33
2022-11-11T01:25:06.639Z,1.43
2022-11-11T01:26:09.883Z,1.86
2022-11-11T01:27:12.958Z,1.71
2022-11-11T01:28:16.150Z,1.71
2022-11-11T01:29:19.166Z,2.00
2022-11-11T01:30:22.170Z,1.43
2022-11-11T01:31:25.256Z,1.67
2022-11-11T01:32:28.289Z,1.17
2022-11-11T01:33:32.116Z,2.29
2022-11-11T01:34:35.351Z,0.37
2022-11-11T01:35:38.873Z,0.00
2022-11-11T01:36:42.027Z,1.71
2022-11-11T01:37:45.322Z,3.00
2022-11-11T01:38:48.714Z,2.57
2022-11-11T01:39:51.906Z,1.57
2022-11-11T01:40:55.384Z,1.43
2022-11-11T01:42:01.838Z,2.00
2022-11-11T01:43:03.060Z,2.50
2022-11-11T01:44:06.589Z,2.57
2022-11-11T01:45:10.063Z,2.00
2022-11-11T01:46:13.479Z,1.86
2022-11-11T01:47:16.799Z,1.00
2022-11-11T01:48:24.971Z,1.43
2022-11-11T01:49:24.565Z,2.50
2022-11-11T01:50:28.001Z,2.50
2022-11-11T01:51:31.387Z,1.57
2022-11-11T01:52:34.868Z,1.43
2022-11-11T01:53:38.176Z,1.29
2022-11-11T01:54:41.642Z,0.57
2022-11-11T01:55:44.979Z,0.86
2022-11-11T01:56:48.358Z,1.43
2022-11-11T01:57:51.462Z,0.14
2022-11-11T01:58:54.779Z,1.43
2022-11-11T01:59:58.232Z,1.14
2022-11-11T02:01:01.669Z,0.43
2022-11-11T02:02:05.301Z,0.86
2022-11-11T02:03:08.681Z,0.71
2022-11-11T02:04:12.262Z,0.14
2022-11-11T02:05:15.527Z,1.14
2022-11-11T02:06:18.890Z,1.14
2022-11-11T02:07:22.369Z,0.71
2022-11-11T02:08:25.718Z,0.43
2022-11-11T02:09:28.893Z,0.57
2022-11-11T02:10:32.404Z,0.43
2022-11-11T02:11:35.710Z,1.00
2022-11-11T02:12:39.022Z,1.00
2022-11-11T02:13:42.670Z,0.67
2022-11-11T02:14:45.887Z,1.00
2022-11-11T02:15:49.302Z,1.00
2022-11-11T02:16:52.863Z,1.00
2022-11-11T02:17:56.226Z,1.00
2022-11-11T02:18:59.561Z,1.14
2022-11-11T02:20:02.893Z,1.14
2022-11-11T02:21:06.102Z,0.00
2022-11-11T02:22:09.504Z,0.33
2022-11-11T02:23:12.817Z,1.43
2022-11-11T02:24:16.056Z,1.00
2022-11-11T02:25:19.624Z,0.86
2022-11-11T02:26:23.036Z,1.00
2022-11-11T02:27:26.485Z,1.50
2022-11-11T02:28:29.608Z,2.43
2022-11-11T02:29:32.933Z,1.71
2022-11-11T02:30:36.103Z,0.57
2022-11-11T02:31:39.392Z,0.86
2022-11-11T02:32:42.558Z,1.57
2022-11-11T02:33:45.890Z,1.00
2022-11-11T02:34:49.463Z,0.86
2022-11-11T02:35:52.881Z,1.00
2022-11-11T02:36:56.328Z,1.00
2022-11-11T02:37:59.471Z,1.00
2022-11-11T02:39:02.969Z,1.43
2022-11-11T02:40:06.360Z,0.86
2022-11-11T02:41:09.889Z,1.57
2022-11-11T02:42:13.287Z,1.00
2022-11-11T02:43:16.460Z,1.29
2022-11-11T02:44:19.844Z,1.71
2022-11-11T02:45:23.122Z,2.00
2022-11-11T02:46:26.200Z,1.17
2022-11-11T02:47:29.402Z,2.00
2022-11-11T02:48:32.525Z,0.83
2022-11-11T02:49:35.904Z,1.43
2022-11-11T02:50:39.194Z,1.14
2022-11-11T02:51:42.562Z,0.33
2022-11-11T02:52:45.868Z,1.14
2022-11-11T02:53:49.024Z,1.14
2022-11-11T02:54:52.343Z,1.43
2022-11-11T02:55:55.464Z,1.57
2022-11-11T02:56:58.852Z,0.57
2022-11-11T02:58:02.518Z,0.86
2022-11-11T02:59:05.891Z,1.57
2022-11-11T03:00:09.477Z,1.00
2022-11-11T03:01:12.946Z,1.43
2022-11-11T03:02:16.302Z,1.14
2022-11-11T03:03:19.825Z,0.57
2022-11-11T03:04:23.117Z,2.00
2022-11-11T03:05:26.373Z,1.29
2022-11-11T03:06:29.558Z,0.86
2022-11-11T03:07:32.887Z,1.00
2022-11-11T03:08:36.290Z,2.29
2022-11-11T03:09:39.786Z,1.57
2022-11-11T03:10:43.315Z,1.57
2022-11-11T03:11:46.776Z,2.14
2022-11-11T03:12:50.223Z,2.00
2022-11-11T03:13:53.600Z,1.86
2022-11-11T03:14:57.114Z,1.43
2022-11-11T03:16:00.171Z,0.88
2022-11-11T03:17:03.847Z,1.67
2022-11-11T03:18:07.224Z,1.00
2022-11-11T03:19:10.528Z,0.86
2022-11-11T03:20:13.808Z,1.00
2022-11-11T03:22:27.997Z,1.00
2022-11-11T03:23:26.257Z,1.00
2022-11-11T03:24:29.833Z,0.62
2022-11-11T03:25:33.199Z,1.00
2022-11-11T03:26:36.898Z,1.00
2022-11-11T03:27:40.177Z,0.57
2022-11-11T03:28:43.462Z,0.71
2022-11-11T03:29:46.849Z,0.14
2022-11-11T03:30:50.230Z,0.50
2022-11-11T03:31:53.620Z,1.00
2022-11-11T03:32:56.784Z,1.14
2022-11-11T03:34:00.607Z,1.57
2022-11-11T03:35:04.517Z,1.00
2022-11-11T03:36:07.890Z,1.43
2022-11-11T03:37:11.374Z,1.43
2022-11-11T03:38:14.864Z,0.57
2022-11-11T03:39:18.149Z,1.29
2022-11-11T03:40:21.947Z,1.71
2022-11-11T03:41:25.294Z,0.86
2022-11-11T03:42:28.652Z,1.43
2022-11-11T03:43:31.899Z,1.00
2022-11-11T03:44:35.713Z,2.00
2022-11-11T03:45:38.884Z,1.14
2022-11-11T03:46:42.167Z,0.57
2022-11-11T03:47:45.342Z,1.57
2022-11-11T03:48:48.567Z,1.29
2022-11-11T03:49:52.214Z,1.14
2022-11-11T03:50:55.641Z,0.43
2022-11-11T03:51:59.092Z,1.57
2022-11-11T03:53:02.690Z,0.71
2022-11-11T03:54:05.873Z,1.57
2022-11-11T03:55:09.152Z,2.86
2022-11-11T03:56:12.643Z,2.57
2022-11-11T03:57:16.027Z,1.57
2022-11-11T03:58:19.222Z,2.29
2022-11-11T03:59:22.491Z,1.33
2022-11-11T04:00:25.679Z,1.33
2022-11-11T04:01:28.911Z,1.83
2022-11-11T04:02:32.344Z,1.67
2022-11-11T04:03:35.839Z,2.14
2022-11-11T04:04:39.331Z,1.43
2022-11-11T04:05:43.341Z,1.57
2022-11-11T04:06:46.705Z,1.00
2022-11-11T04:07:49.903Z,1.17
2022-11-11T04:08:53.087Z,1.33
2022-11-11T04:09:56.578Z,1.67
2022-11-11T04:10:59.858Z,1.00
2022-11-11T04:12:03.132Z,1.00
2022-11-11T04:13:06.620Z,0.71
2022-11-11T04:14:10.225Z,1.86
2022-11-11T04:15:13.699Z,2.00
2022-11-11T04:16:17.191Z,1.43
2022-11-11T04:17:20.329Z,1.43
2022-11-11T04:18:23.450Z,2.00
2022-11-11T04:19:26.846Z,1.57
2022-11-11T04:20:30.221Z,1.00
2022-11-11T04:21:33.612Z,1.86
2022-11-11T04:22:37.207Z,1.50
2022-11-11T04:23:40.490Z,1.57
2022-11-11T04:24:43.774Z,1.86
2022-11-11T04:25:47.062Z,2.57
2022-11-11T04:26:50.351Z,1.00
2022-11-11T04:27:53.640Z,2.00
2022-11-11T04:28:57.122Z,3.00
2022-11-11T04:30:00.498Z,4.14
2022-11-11T04:31:03.888Z,3.43
2022-11-11T04:32:07.175Z,2.00
2022-11-11T04:33:10.564Z,3.00
2022-11-11T04:34:13.851Z,4.00
2022-11-11T04:35:17.228Z,2.71
2022-11-11T04:36:20.524Z,1.00
2022-11-11T04:37:23.810Z,2.14
2022-11-11T04:38:27.311Z,2.57
2022-11-11T04:39:30.984Z,2.12
2022-11-11T04:40:34.189Z,2.71
2022-11-11T04:42:01.601Z,3.00
2022-11-11T04:42:41.859Z,3.25
2022-11-11T04:43:45.244Z,1.86
2022-11-11T04:44:48.524Z,2.00
2022-11-11T04:45:51.674Z,3.00
2022-11-11T04:46:54.992Z,2.83
2022-11-11T04:47:58.173Z,2.29
2022-11-11T04:49:01.771Z,1.67
2022-11-11T04:50:07.435Z,1.43
2022-11-11T04:51:09.111Z,2.37
2022-11-11T04:52:12.238Z,2.00
2022-11-11T04:53:15.835Z,1.29
2022-11-11T04:54:19.110Z,2.00
2022-11-11T04:55:25.566Z,3.00
2022-11-11T04:56:29.382Z,2.62
2022-11-11T04:57:32.771Z,2.57
2022-11-11T04:58:36.384Z,3.00
2022-11-11T04:59:39.722Z,3.00
2022-11-11T05:00:43.126Z,3.00
2022-11-11T05:01:46.298Z,3.00
2022-11-11T05:02:49.688Z,4.00
2022-11-11T05:03:54.096Z,2.00
2022-11-11T05:04:57.558Z,1.75
2022-11-11T05:06:00.974Z,2.00
2022-11-11T05:07:04.602Z,2.29
2022-11-11T05:08:07.952Z,2.25
2022-11-11T05:09:11.334Z,3.43
2022-11-11T05:10:14.828Z,2.86
2022-11-11T05:11:18.111Z,3.00
2022-11-11T05:12:21.450Z,3.00
2022-11-11T05:13:24.572Z,3.00
2022-11-11T05:14:31.030Z,1.86
2022-11-11T05:15:34.427Z,2.62
2022-11-11T05:16:38.012Z,4.29
2022-11-11T05:17:41.168Z,3.62
2022-11-11T05:18:44.477Z,3.67
2022-11-11T05:19:47.671Z,4.71
2022-11-11T05:20:50.950Z,3.33
2022-11-11T05:21:54.265Z,3.37
2022-11-11T05:22:57.524Z,4.43
2022-11-11T05:24:01.003Z,6.00
2022-11-11T05:25:04.313Z,4.71
2022-11-11T05:26:07.673Z,3.00
2022-11-11T05:27:10.966Z,3.86
2022-11-11T05:28:14.453Z,3.57
2022-11-11T05:29:17.624Z,3.00
2022-11-11T05:30:20.811Z,3.29
2022-11-11T05:31:24.306Z,3.86
2022-11-11T05:32:27.480Z,4.57
2022-11-11T05:33:31.036Z,3.57
2022-11-11T05:34:34.150Z,2.57
2022-11-11T05:35:37.437Z,2.17
2022-11-11T05:36:40.834Z,3.00
2022-11-11T05:37:44.313Z,2.57
2022-11-11T05:38:48.020Z,3.86
2022-11-11T05:39:51.401Z,4.29
2022-11-11T05:40:54.671Z,3.57
2022-11-11T05:41:58.271Z,3.43
2022-11-11T05:43:01.653Z,3.29
2022-11-11T05:44:04.835Z,2.43
2022-11-11T05:45:07.944Z,3.29
2022-11-11T05:46:11.300Z,4.57
2022-11-11T05:47:14.791Z,3.86
2022-11-11T05:48:18.101Z,4.86
2022-11-11T05:49:21.867Z,3.86
2022-11-11T05:50:25.363Z,4.00
2022-11-11T05:51:28.852Z,4.00
2022-11-11T05:52:32.141Z,3.57
2022-11-11T05:53:35.322Z,3.00
2022-11-11T05:54:38.596Z,3.57
2022-11-11T05:55:41.693Z,3.67
2022-11-11T05:56:44.884Z,3.43
2022-11-11T05:57:48.042Z,3.57
2022-11-11T05:58:51.225Z,4.00
2022-11-11T05:59:54.506Z,3.43
2022-11-11T06:00:57.790Z,4.43
2022-11-11T06:02:01.230Z,4.14
2022-11-11T06:03:04.458Z,3.43
2022-11-11T06:04:07.747Z,3.43
2022-11-11T06:05:10.843Z,3.57
2022-11-11T06:06:14.108Z,3.00
2022-11-11T06:07:17.245Z,3.86
2022-11-11T06:08:20.480Z,5.00
2022-11-11T06:09:23.862Z,4.14
2022-11-11T06:10:27.385Z,3.29
2022-11-11T06:11:32.893Z,3.86
2022-11-11T06:12:35.159Z,3.62
2022-11-11T06:13:38.251Z,3.29
2022-11-11T06:14:41.635Z,4.17
2022-11-11T06:15:44.802Z,4.00
2022-11-11T06:16:47.940Z,2.29
2022-11-11T06:17:51.169Z,3.33
2022-11-11T06:18:54.549Z,3.43
2022-11-11T06:19:58.027Z,2.83
2022-11-11T06:21:01.073Z,2.86
2022-11-11T06:22:05.324Z,4.57
2022-11-11T06:23:08.603Z,5.33
2022-11-11T06:24:11.990Z,3.29
2022-11-11T06:25:15.179Z,3.71
2022-11-11T06:26:18.665Z,4.57
2022-11-11T06:27:22.045Z,4.29
2022-11-11T06:28:25.331Z,4.86
2022-11-11T06:29:28.611Z,5.14
2022-11-11T06:30:49.402Z,4.57
2022-11-11T06:31:36.009Z,5.00
2022-11-11T06:32:39.384Z,4.33
2022-11-11T06:33:42.676Z,3.43
2022-11-11T06:34:45.851Z,5.00
2022-11-11T06:35:49.140Z,5.67
2022-11-11T06:36:52.462Z,3.67
2022-11-11T06:37:55.775Z,5.00
2022-11-11T06:38:59.300Z,3.71
2022-11-11T06:40:02.683Z,3.14
2022-11-11T06:41:05.867Z,4.43
2022-11-11T06:42:09.156Z,3.43
2022-11-11T06:43:12.540Z,4.00
2022-11-11T06:44:15.820Z,4.57
2022-11-11T06:45:19.002Z,4.14
2022-11-11T06:46:22.390Z,3.57
2022-11-11T06:47:25.784Z,3.71
2022-11-11T06:48:29.060Z,5.29
2022-11-11T06:49:32.574Z,5.17
2022-11-11T06:50:35.862Z,4.12
2022-11-11T06:51:39.031Z,4.00
2022-11-11T06:52:42.110Z,4.14
2022-11-11T06:53:45.193Z,3.33
2022-11-11T06:54:48.473Z,2.83
2022-11-11T06:55:51.771Z,4.00
2022-11-11T06:56:54.992Z,2.57
2022-11-11T06:57:58.329Z,3.43
2022-11-11T06:59:01.605Z,5.57
2022-11-11T07:00:04.776Z,5.14
2022-11-11T07:01:08.116Z,4.29
2022-11-11T07:02:11.348Z,4.29
2022-11-11T07:03:14.628Z,5.57
2022-11-11T07:04:17.914Z,4.67
2022-11-11T07:05:21.203Z,4.33
2022-11-11T07:06:24.793Z,4.83
2022-11-11T07:07:28.184Z,4.00
2022-11-11T07:08:31.385Z,5.71
2022-11-11T07:09:34.555Z,5.29
2022-11-11T07:10:37.607Z,5.57
2022-11-11T07:11:40.919Z,4.71
2022-11-11T07:12:44.092Z,4.57
2022-11-11T07:13:47.406Z,4.33
2022-11-11T07:14:50.652Z,3.86
2022-11-11T07:15:53.849Z,5.29
2022-11-11T07:16:59.574Z,6.29
2022-11-11T07:18:01.431Z,5.50
2022-11-11T07:19:04.832Z,5.00
2022-11-11T07:20:07.996Z,4.29
2022-11-11T07:21:11.182Z,4.17
2022-11-11T07:22:14.362Z,4.29
2022-11-11T07:23:17.547Z,4.00
2022-11-11T07:24:20.826Z,8.57
2022-11-11T07:25:24.108Z,12.71
2022-11-11T07:26:27.260Z,13.86
2022-11-11T07:27:30.618Z,15.00
2022-11-11T07:28:33.903Z,14.00
2022-11-11T07:29:37.176Z,13.00
2022-11-11T07:30:40.339Z,11.00
2022-11-11T07:31:43.546Z,10.00
2022-11-11T07:32:46.907Z,8.33
2022-11-11T07:33:50.292Z,8.57
2022-11-11T07:34:53.673Z,6.00
2022-11-11T07:35:56.954Z,3.14
2022-11-11T07:37:00.349Z,2.29
2022-11-11T07:38:03.521Z,2.57
2022-11-11T07:39:08.931Z,1.57
2022-11-11T07:40:11.290Z,1.50
2022-11-11T07:41:14.563Z,1.14
2022-11-11T07:42:30.974Z,1.00
2022-11-11T07:43:22.581Z,1.50
2022-11-11T07:44:25.994Z,2.00
2022-11-11T07:45:29.276Z,3.14
2022-11-11T07:46:32.669Z,1.86
2022-11-11T07:47:35.863Z,2.00
2022-11-11T07:48:39.072Z,2.43
2022-11-11T07:49:43.375Z,2.29
2022-11-11T07:50:46.531Z,1.62
2022-11-11T07:51:49.806Z,2.57
2022-11-11T07:52:53.089Z,2.86
2022-11-11T07:53:56.232Z,2.57
2022-11-11T07:54:59.446Z,2.00
2022-11-11T07:56:02.632Z,1.43
2022-11-11T07:57:06.018Z,1.29
2022-11-11T07:58:09.508Z,2.43
2022-11-11T07:59:12.893Z,3.14
2022-11-11T08:00:16.285Z,2.86
2022-11-11T08:01:19.609Z,2.83
2022-11-11T08:02:22.860Z,2.43
2022-11-11T08:03:26.256Z,2.57
2022-11-11T08:04:29.827Z,2.00
2022-11-11T08:05:33.011Z,2.00
2022-11-11T08:06:36.391Z,1.57
2022-11-11T08:07:39.590Z,1.43
2022-11-11T08:08:42.653Z,1.71
2022-11-11T08:09:45.815Z,1.86
2022-11-11T08:10:49.019Z,2.00
2022-11-11T08:11:52.104Z,2.00
2022-11-11T08:12:55.284Z,2.43
2022-11-11T08:13:58.667Z,3.00
2022-11-11T08:15:06.174Z,2.14
2022-11-11T08:16:06.369Z,2.00
2022-11-11T08:17:09.747Z,2.86
2022-11-11T08:18:12.832Z,3.14
2022-11-11T08:19:16.227Z,1.57
2022-11-11T08:20:19.599Z,2.00
2022-11-11T08:21:22.885Z,1.57
2022-11-11T08:22:26.173Z,1.33
2022-11-11T08:25:37.973Z,2.62
2022-11-11T08:26:41.053Z,2.14
2022-11-11T08:27:44.236Z,1.43
2022-11-11T08:28:47.716Z,1.43
2022-11-11T08:29:50.873Z,1.71
2022-11-11T08:30:53.964Z,1.43
2022-11-11T08:31:57.161Z,2.00
2022-11-11T08:33:31.260Z,2.00
2022-11-11T08:34:04.017Z,1.37
2022-11-11T08:35:07.323Z,2.00
2022-11-11T08:36:10.612Z,1.57
2022-11-11T08:37:13.991Z,2.00
2022-11-11T08:38:17.174Z,2.00
2022-11-11T08:39:20.471Z,2.00
2022-11-11T08:40:23.741Z,2.00
2022-11-11T08:41:26.795Z,2.57
2022-11-11T08:42:30.125Z,2.43
2022-11-11T08:43:37.053Z,1.71
2022-11-11T08:44:37.565Z,1.87
2022-11-11T08:45:40.674Z,2.29
2022-11-11T08:46:44.092Z,2.00
2022-11-11T08:47:47.755Z,2.29
2022-11-11T08:48:50.937Z,2.86
2022-11-11T08:49:54.427Z,2.33
2022-11-11T08:51:04.575Z,2.00
2022-11-11T08:52:07.762Z,1.14
2022-11-11T08:53:10.946Z,1.17
2022-11-11T08:54:14.225Z,2.33
2022-11-11T08:55:17.405Z,2.50
2022-11-11T08:56:20.585Z,1.33
2022-11-11T08:57:23.893Z,2.33
2022-11-11T08:58:27.113Z,1.57
2022-11-11T08:59:30.543Z,1.50
2022-11-11T09:00:33.600Z,2.43
2022-11-11T09:01:37.017Z,3.33
2022-11-11T09:02:40.290Z,1.71
2022-11-11T09:03:43.453Z,2.33
2022-11-11T09:04:48.479Z,2.17
2022-11-11T09:05:50.968Z,2.62
2022-11-11T09:06:54.185Z,3.67
2022-11-11T09:07:57.430Z,2.67
2022-11-11T09:09:00.712Z,2.33
2022-11-11T09:10:03.993Z,2.67
2022-11-11T09:11:07.380Z,2.33
2022-11-11T09:12:10.568Z,3.00
2022-11-11T09:13:13.752Z,3.43
2022-11-11T09:14:17.342Z,3.17
2022-11-11T09:15:21.055Z,3.43
2022-11-11T09:16:24.340Z,3.43
2022-11-11T09:17:27.624Z,3.14
2022-11-11T09:18:30.902Z,3.00
2022-11-11T09:19:34.371Z,3.67
2022-11-11T09:20:37.756Z,5.00
2022-11-11T09:21:41.149Z,5.57
2022-11-11T09:22:44.632Z,4.57
2022-11-11T09:23:47.869Z,4.29
2022-11-11T09:24:51.408Z,5.86
2022-11-11T09:25:54.695Z,7.00
2022-11-11T09:26:57.772Z,6.33
2022-11-11T09:28:01.060Z,5.33
2022-11-11T09:29:04.237Z,7.00
2022-11-11T09:30:07.628Z,9.57
2022-11-11T09:31:42.623Z,11.71
2022-11-11T09:32:15.112Z,15.88
2022-11-11T09:33:18.501Z,20.00
2022-11-11T09:34:21.952Z,23.86
2022-11-11T09:35:25.172Z,29.00
2022-11-11T09:36:28.567Z,37.17
2022-11-11T09:37:32.152Z,36.86
2022-11-11T09:38:35.534Z,35.43
2022-11-11T09:39:38.924Z,35.00
2022-11-11T09:40:42.411Z,35.33
2022-11-11T09:41:45.908Z,38.86
2022-11-11T09:42:49.186Z,44.43
2022-11-11T09:43:52.370Z,45.50
2022-11-11T09:44:55.583Z,44.57
2022-11-11T09:45:59.034Z,40.71
2022-11-11T09:47:02.247Z,42.29
2022-11-11T09:48:09.974Z,45.86
2022-11-11T09:49:10.123Z,44.50
2022-11-11T09:50:13.612Z,46.57
2022-11-11T09:51:17.109Z,49.57
2022-11-11T09:52:20.790Z,49.86
2022-11-11T09:53:24.181Z,48.29
2022-11-11T09:54:27.673Z,47.00
2022-11-11T09:55:30.950Z,47.00
2022-11-11T09:56:34.238Z,47.14
2022-11-11T09:57:37.623Z,46.14
2022-11-11T09:58:41.110Z,44.00
2022-11-11T09:59:43.943Z,42.00
2022-11-11T10:00:46.840Z,39.83
2022-11-11T10:01:49.433Z,39.86
2022-11-11T10:02:52.148Z,41.00
2022-11-11T10:03:54.812Z,40.50
2022-11-11T10:04:57.401Z,40.57
2022-11-11T10:06:00.239Z,37.50
2022-11-11T10:07:03.184Z,36.00
2022-11-11T10:08:06.205Z,36.83
2022-11-11T10:09:08.789Z,34.67
2022-11-11T10:10:11.547Z,37.67
2022-11-11T10:11:14.370Z,36.00
2022-11-11T10:12:17.202Z,35.33
2022-11-11T10:13:20.064Z,35.67
2022-11-11T10:14:22.912Z,36.83
2022-11-11T10:15:25.749Z,35.83
2022-11-11T10:16:28.516Z,37.14
2022-11-11T10:17:31.256Z,36.00
2022-11-11T10:18:34.084Z,30.00
2022-11-11T10:19:36.929Z,29.50
2022-11-11T10:20:39.852Z,31.00
2022-11-11T10:22:10.535Z,35.14
2022-11-11T10:22:46.950Z,32.00
2022-11-11T10:23:49.536Z,31.00
2022-11-11T10:24:52.187Z,30.33
2022-11-11T10:25:54.873Z,30.57
2022-11-11T10:26:57.450Z,30.20
2022-11-11T10:28:00.347Z,30.17
2022-11-11T10:29:02.945Z,29.33
2022-11-11T10:30:05.517Z,29.50
2022-11-11T10:31:08.123Z,29.67
2022-11-11T10:32:10.664Z,31.67
2022-11-11T10:33:13.252Z,30.00
2022-11-11T10:34:15.928Z,29.83
2022-11-11T10:35:18.514Z,27.33
2022-11-11T10:36:21.119Z,28.67
2022-11-11T10:37:23.761Z,29.50
2022-11-11T10:38:26.661Z,27.00
2022-11-11T10:39:29.342Z,27.14
2022-11-11T10:40:32.013Z,28.33
2022-11-11T10:41:34.664Z,27.67
2022-11-11T10:42:40.907Z,25.67
2022-11-11T10:43:41.585Z,24.63
2022-11-11T10:44:44.421Z,25.00
2022-11-11T10:45:47.017Z,23.33
2022-11-11T10:46:49.624Z,21.33
2022-11-11T10:47:52.277Z,21.33
2022-11-11T10:48:54.963Z,19.29
2022-11-11T10:49:57.536Z,17.50
2022-11-11T10:51:00.373Z,16.00
2022-11-11T10:52:03.272Z,16.83
2022-11-11T10:53:06.108Z,15.33
2022-11-11T10:54:08.932Z,16.57
2022-11-11T10:55:11.740Z,14.83
2022-11-11T10:56:14.643Z,13.71
2022-11-11T10:57:17.276Z,14.00
2022-11-11T10:58:20.119Z,14.33
2022-11-11T10:59:22.965Z,15.00
2022-11-11T11:00:25.824Z,14.67
2022-11-11T11:01:28.800Z,13.00
2022-11-11T11:02:31.645Z,11.00
2022-11-11T11:03:34.532Z,11.33
2022-11-11T11:04:37.372Z,12.57
2022-11-11T11:05:40.280Z,12.00
2022-11-11T11:06:43.044Z,11.00
2022-11-11T11:07:45.573Z,9.50
2022-11-11T11:08:48.421Z,10.33
2022-11-11T11:09:51.014Z,11.00
2022-11-11T11:10:53.683Z,10.67
2022-11-11T11:11:56.400Z,10.67
2022-11-11T11:12:59.232Z,11.00
2022-11-11T11:14:01.985Z,9.43
2022-11-11T11:15:04.881Z,9.50
2022-11-11T11:16:07.706Z,9.57
2022-11-11T11:17:10.391Z,8.50
2022-11-11T11:18:13.008Z,9.33
2022-11-11T11:19:15.605Z,9.83
2022-11-11T11:20:18.391Z,9.33
2022-11-11T11:21:21.048Z,9.67
2022-11-11T11:22:23.653Z,8.67
2022-11-11T11:23:26.242Z,8.33
2022-11-11T11:24:28.779Z,7.67
2022-11-11T11:25:31.570Z,8.50
2022-11-11T11:26:34.273Z,7.83
2022-11-11T11:27:37.101Z,7.83
2022-11-11T11:28:39.876Z,9.00
2022-11-11T11:29:42.680Z,9.43
2022-11-11T11:30:45.605Z,8.67
2022-11-11T11:31:48.098Z,9.43
2022-11-11T11:32:50.689Z,10.17
2022-11-11T11:33:53.310Z,9.83
2022-11-11T11:34:55.984Z,8.33
2022-11-11T11:35:58.588Z,9.00
2022-11-11T11:37:01.186Z,8.57
2022-11-11T11:38:03.773Z,8.33
2022-11-11T11:39:06.369Z,9.83
2022-11-11T11:40:08.974Z,10.33
2022-11-11T11:41:11.731Z,10.17
2022-11-11T11:42:14.548Z,10.00
2022-11-11T11:43:17.333Z,8.67
2022-11-11T11:44:20.005Z,8.67
2022-11-11T11:45:22.746Z,9.33
2022-11-11T11:46:25.483Z,9.50
2022-11-11T11:47:28.324Z,12.17
2022-11-11T11:48:33.955Z,11.33
2022-11-11T11:49:36.769Z,16.50
2022-11-11T11:50:39.597Z,19.57
2022-11-11T11:51:42.419Z,15.83
2022-11-11T11:52:45.253Z,14.14
2022-11-11T11:53:47.733Z,16.67
2022-11-11T11:54:50.388Z,20.83
2022-11-11T11:55:52.892Z,20.33
2022-11-11T11:56:55.503Z,20.00
2022-11-11T11:57:58.134Z,16.67
2022-11-11T11:59:00.993Z,19.00
2022-11-11T12:00:03.893Z,19.17
2022-11-11T12:01:06.744Z,18.86
2022-11-11T12:02:09.653Z,21.00
2022-11-11T12:03:15.290Z,21.57
2022-11-11T12:04:18.167Z,23.62
2022-11-11T12:05:23.800Z,24.14
2022-11-11T12:06:26.622Z,23.00
2022-11-11T12:07:29.606Z,23.00
2022-11-11T12:08:32.172Z,23.14
2022-11-11T12:09:34.764Z,23.17
2022-11-11T12:10:42.242Z,22.17
2022-11-11T12:11:41.200Z,20.29
2022-11-11T12:12:43.881Z,20.00
2022-11-11T12:13:46.391Z,20.67
2022-11-11T12:14:49.003Z,21.33
2022-11-11T12:15:51.500Z,20.17
2022-11-11T12:16:54.089Z,17.60
2022-11-11T12:17:56.623Z,15.83
2022-11-11T12:18:59.087Z,14.67
2022-11-11T12:20:01.794Z,14.67
2022-11-11T12:21:04.713Z,12.71
2022-11-11T12:22:07.562Z,10.83
2022-11-11T12:23:10.400Z,11.14
2022-11-11T12:24:13.242Z,11.50
2022-11-11T12:25:16.025Z,11.33
2022-11-11T12:26:19.021Z,10.67
2022-11-11T12:27:21.863Z,9.67
2022-11-11T12:28:24.943Z,8.00
2022-11-11T12:29:28.001Z,8.00
2022-11-11T12:30:30.840Z,7.67
2022-11-11T12:31:33.739Z,7.67
2022-11-11T12:32:36.582Z,6.67
2022-11-11T12:33:39.405Z,5.83
2022-11-11T12:34:42.223Z,6.00
2022-11-11T12:35:45.053Z,4.86
2022-11-11T12:36:48.135Z,5.33
2022-11-11T12:37:50.732Z,5.57
2022-11-11T12:38:53.334Z,5.00
2022-11-11T12:39:55.934Z,4.67
2022-11-11T12:40:58.591Z,4.29
2022-11-11T12:42:01.806Z,3.33
2022-11-11T12:43:04.461Z,4.00
2022-11-11T12:44:07.288Z,3.67
2022-11-11T12:45:10.119Z,3.83
2022-11-11T12:46:12.983Z,4.00
2022-11-11T12:47:16.014Z,4.00
2022-11-11T12:48:18.876Z,4.00
2022-11-11T12:49:21.637Z,4.33
2022-11-11T12:50:24.479Z,3.86
2022-11-11T12:51:27.399Z,4.67
2022-11-11T12:52:30.435Z,4.00
2022-11-11T12:53:33.344Z,3.67
2022-11-11T12:54:35.879Z,3.00
2022-11-11T12:55:38.450Z,3.00
2022-11-11T12:56:41.104Z,3.33
2022-11-11T12:57:43.793Z,3.57
2022-11-11T12:58:46.390Z,3.33
2022-11-11T12:59:48.963Z,4.00
2022-11-11T13:00:51.683Z,3.33
2022-11-11T13:01:54.314Z,3.00
2022-11-11T13:02:56.975Z,4.00
2022-11-11T13:03:59.547Z,4.50
2022-11-11T13:05:02.133Z,3.67
2022-11-11T13:06:04.696Z,3.33
2022-11-11T13:07:07.237Z,2.67
2022-11-11T13:08:09.980Z,2.33
2022-11-11T13:09:12.565Z,3.00
2022-11-11T13:10:15.077Z,2.67
2022-11-11T13:11:17.734Z,2.33
2022-11-11T13:12:20.294Z,3.00
2022-11-11T13:13:23.113Z,2.67
2022-11-11T13:14:25.981Z,2.33
2022-11-11T13:15:28.521Z,2.67
2022-11-11T13:16:31.204Z,2.60
2022-11-11T13:17:33.878Z,2.33
2022-11-11T13:18:36.847Z,2.67
2022-11-11T13:19:39.637Z,2.43
2022-11-11T13:20:42.393Z,3.00
2022-11-11T13:21:45.210Z,3.00
2022-11-11T13:22:47.999Z,3.00
2022-11-11T13:23:50.628Z,3.33
2022-11-11T13:24:53.714Z,3.67
2022-11-11T13:26:01.249Z,3.83
2022-11-11T13:27:00.317Z,3.29
2022-11-11T13:28:03.161Z,2.33
2022-11-11T13:29:06.484Z,3.00
2022-11-11T13:30:09.276Z,3.00
2022-11-11T13:31:12.080Z,3.50
2022-11-11T13:32:15.051Z,2.57
2022-11-11T13:33:23.621Z,2.33
2022-11-11T13:34:21.926Z,2.50
2022-11-11T13:35:24.744Z,3.00
2022-11-11T13:36:27.553Z,3.33
2022-11-11T13:37:30.292Z,3.00
2022-11-11T13:38:33.131Z,3.00
2022-11-11T13:39:36.060Z,2.67
2022-11-11T13:40:38.932Z,1.57
2022-11-11T13:41:41.733Z,1.67
2022-11-11T13:42:44.587Z,3.43
2022-11-11T13:43:47.339Z,3.83
2022-11-11T13:44:50.180Z,2.67
2022-11-11T13:45:52.719Z,2.33
2022-11-11T13:46:55.272Z,3.00
2022-11-11T13:47:57.903Z,2.50
2022-11-11T13:49:00.538Z,2.00
2022-11-11T13:50:03.395Z,2.33
2022-11-11T13:51:05.979Z,2.33
2022-11-11T13:52:08.524Z,1.67
2022-11-11T13:53:11.081Z,3.00
2022-11-11T13:54:13.665Z,3.00
2022-11-11T13:55:16.361Z,2.67
2022-11-11T13:56:19.163Z,3.00
2022-11-11T13:57:21.876Z,3.17
2022-11-11T13:58:24.424Z,2.57
2022-11-11T13:59:27.247Z,2.00
2022-11-11T14:00:30.139Z,2.00